sensor_id;sensor_type;location;lat;lon;timestamp;temperature;humidity
10702;DHT22;5402;50.004;8.246;2023-03-11T00:01:42;2.20;99.90
10702;DHT22;5402;50.004;8.246;2023-03-11T00:04:08;2.20;99.90
10702;DHT22;5402;50.004;8.246;2023-03-11T00:06:36;2.20;99.90
10702;DHT22;5402;50.004;8.246;2023-03-11T00:09:03;2.20;99.90
10702;DHT22;5402;50.004;8.246;2023-03-11T00:11:30;2.20;99.90
10702;DHT22;5402;50.004;8.246;2023-03-11T00:13:57;2.20;99.90
10702;DHT22;5402;50.004;8.246;2023-03-11T00:16:25;2.30;99.90
10702;DHT22;5402;50.004;8.246;2023-03-11T00:18:52;2.30;99.90
10702;DHT22;5402;50.004;8.246;2023-03-11T00:21:19;2.30;99.90
10702;DHT22;5402;50.004;8.246;2023-03-11T00:23:46;2.30;99.90
10702;DHT22;5402;50.004;8.246;2023-03-11T00:26:13;2.20;99.90
10702;DHT22;5402;50.004;8.246;2023-03-11T00:28:40;2.20;99.90
10702;DHT22;5402;50.004;8.246;2023-03-11T00:31:06;2.20;99.90
10702;DHT22;5402;50.004;8.246;2023-03-11T00:33:34;2.20;99.90
10702;DHT22;5402;50.004;8.246;2023-03-11T00:36:01;2.20;99.90
10702;DHT22;5402;50.004;8.246;2023-03-11T00:38:28;2.10;99.90
10702;DHT22;5402;50.004;8.246;2023-03-11T00:40:55;2.10;99.90
10702;DHT22;5402;50.004;8.246;2023-03-11T00:43:21;2.10;99.90
10702;DHT22;5402;50.004;8.246;2023-03-11T00:45:48;2.10;99.90
10702;DHT22;5402;50.004;8.246;2023-03-11T00:48:15;2.10;99.90
10702;DHT22;5402;50.004;8.246;2023-03-11T00:50:43;2.10;99.90
10702;DHT22;5402;50.004;8.246;2023-03-11T00:53:10;2.10;99.90
10702;DHT22;5402;50.004;8.246;2023-03-11T00:55:37;2.10;99.90
10702;DHT22;5402;50.004;8.246;2023-03-11T00:58:05;2.20;99.90
10702;DHT22;5402;50.004;8.246;2023-03-11T01:00:32;2.10;99.90
10702;DHT22;5402;50.004;8.246;2023-03-11T01:02:59;2.10;99.90
10702;DHT22;5402;50.004;8.246;2023-03-11T01:05:29;2.10;99.90
10702;DHT22;5402;50.004;8.246;2023-03-11T01:07:58;2.20;99.90
10702;DHT22;5402;50.004;8.246;2023-03-11T01:10:25;2.10;99.90
10702;DHT22;5402;50.004;8.246;2023-03-11T01:12:52;2.10;99.90
10702;DHT22;5402;50.004;8.246;2023-03-11T01:15:20;2.10;99.90
10702;DHT22;5402;50.004;8.246;2023-03-11T01:17:48;2.00;99.90
10702;DHT22;5402;50.004;8.246;2023-03-11T01:20:15;1.90;99.90
10702;DHT22;5402;50.004;8.246;2023-03-11T01:22:44;1.90;99.90
10702;DHT22;5402;50.004;8.246;2023-03-11T01:25:14;2.00;99.90
10702;DHT22;5402;50.004;8.246;2023-03-11T01:27:41;2.00;99.90
10702;DHT22;5402;50.004;8.246;2023-03-11T01:30:12;2.00;99.90
10702;DHT22;5402;50.004;8.246;2023-03-11T01:32:39;2.00;99.90
10702;DHT22;5402;50.004;8.246;2023-03-11T01:35:06;2.00;99.90
10702;DHT22;5402;50.004;8.246;2023-03-11T01:37:33;2.10;99.90
10702;DHT22;5402;50.004;8.246;2023-03-11T01:39:59;2.10;99.90
10702;DHT22;5402;50.004;8.246;2023-03-11T01:42:27;2.10;99.90
10702;DHT22;5402;50.004;8.246;2023-03-11T01:44:54;2.10;99.90
10702;DHT22;5402;50.004;8.246;2023-03-11T01:47:36;2.10;99.90
10702;DHT22;5402;50.004;8.246;2023-03-11T01:50:06;2.10;99.90
10702;DHT22;5402;50.004;8.246;2023-03-11T01:52:34;2.10;99.90
10702;DHT22;5402;50.004;8.246;2023-03-11T01:55:01;2.10;99.90
10702;DHT22;5402;50.004;8.246;2023-03-11T01:57:29;2.10;99.90
10702;DHT22;5402;50.004;8.246;2023-03-11T01:59:57;2.10;99.90
10702;DHT22;5402;50.004;8.246;2023-03-11T02:02:29;2.10;99.90
10702;DHT22;5402;50.004;8.246;2023-03-11T02:04:58;2.10;99.90
10702;DHT22;5402;50.004;8.246;2023-03-11T02:07:27;2.10;99.90
10702;DHT22;5402;50.004;8.246;2023-03-11T02:09:53;2.10;99.90
10702;DHT22;5402;50.004;8.246;2023-03-11T02:12:20;2.10;99.90
10702;DHT22;5402;50.004;8.246;2023-03-11T02:14:50;2.00;99.90
10702;DHT22;5402;50.004;8.246;2023-03-11T02:17:18;2.00;99.90
10702;DHT22;5402;50.004;8.246;2023-03-11T02:19:55;2.00;99.90
10702;DHT22;5402;50.004;8.246;2023-03-11T02:22:25;2.00;99.90
10702;DHT22;5402;50.004;8.246;2023-03-11T02:24:58;2.00;99.90
10702;DHT22;5402;50.004;8.246;2023-03-11T02:27:30;2.00;99.90
10702;DHT22;5402;50.004;8.246;2023-03-11T02:29:59;2.00;99.90
10702;DHT22;5402;50.004;8.246;2023-03-11T02:32:28;2.00;99.90
10702;DHT22;5402;50.004;8.246;2023-03-11T02:34:54;2.10;99.90
10702;DHT22;5402;50.004;8.246;2023-03-11T02:37:21;2.10;99.90
10702;DHT22;5402;50.004;8.246;2023-03-11T02:39:50;2.10;99.90
10702;DHT22;5402;50.004;8.246;2023-03-11T02:42:21;2.10;99.90
10702;DHT22;5402;50.004;8.246;2023-03-11T02:44:56;2.10;99.90
10702;DHT22;5402;50.004;8.246;2023-03-11T02:47:24;2.20;99.90
10702;DHT22;5402;50.004;8.246;2023-03-11T02:49:53;2.20;99.90
10702;DHT22;5402;50.004;8.246;2023-03-11T02:52:20;2.10;99.90
10702;DHT22;5402;50.004;8.246;2023-03-11T02:54:47;2.10;99.90
10702;DHT22;5402;50.004;8.246;2023-03-11T02:57:14;2.10;99.90
10702;DHT22;5402;50.004;8.246;2023-03-11T02:59:40;2.00;99.90
10702;DHT22;5402;50.004;8.246;2023-03-11T03:02:08;2.00;99.90
10702;DHT22;5402;50.004;8.246;2023-03-11T03:04:35;1.90;99.90
10702;DHT22;5402;50.004;8.246;2023-03-11T03:07:02;1.90;99.90
10702;DHT22;5402;50.004;8.246;2023-03-11T03:09:29;1.90;99.90
10702;DHT22;5402;50.004;8.246;2023-03-11T03:11:56;1.90;99.90
10702;DHT22;5402;50.004;8.246;2023-03-11T03:14:22;1.90;99.90
10702;DHT22;5402;50.004;8.246;2023-03-11T03:16:49;2.00;99.90
10702;DHT22;5402;50.004;8.246;2023-03-11T03:19:17;1.90;99.90
10702;DHT22;5402;50.004;8.246;2023-03-11T03:21:44;1.90;99.90
10702;DHT22;5402;50.004;8.246;2023-03-11T03:24:11;1.90;99.90
10702;DHT22;5402;50.004;8.246;2023-03-11T03:26:37;2.00;99.90
10702;DHT22;5402;50.004;8.246;2023-03-11T03:29:04;2.00;99.90
10702;DHT22;5402;50.004;8.246;2023-03-11T03:31:31;2.00;99.90
10702;DHT22;5402;50.004;8.246;2023-03-11T03:33:58;2.00;99.90
10702;DHT22;5402;50.004;8.246;2023-03-11T03:36:26;2.00;99.90
10702;DHT22;5402;50.004;8.246;2023-03-11T03:38:54;2.00;99.90
10702;DHT22;5402;50.004;8.246;2023-03-11T03:41:21;2.00;99.90
10702;DHT22;5402;50.004;8.246;2023-03-11T03:43:48;2.00;99.90
10702;DHT22;5402;50.004;8.246;2023-03-11T03:46:14;2.00;99.90
10702;DHT22;5402;50.004;8.246;2023-03-11T03:48:41;2.00;99.90
10702;DHT22;5402;50.004;8.246;2023-03-11T03:51:10;2.00;99.90
10702;DHT22;5402;50.004;8.246;2023-03-11T03:53:39;1.90;99.90
10702;DHT22;5402;50.004;8.246;2023-03-11T03:56:09;1.90;99.90
10702;DHT22;5402;50.004;8.246;2023-03-11T03:58:36;2.00;99.90
10702;DHT22;5402;50.004;8.246;2023-03-11T04:01:03;2.00;99.90
10702;DHT22;5402;50.004;8.246;2023-03-11T04:03:31;2.00;99.90
10702;DHT22;5402;50.004;8.246;2023-03-11T04:06:05;1.90;99.90
10702;DHT22;5402;50.004;8.246;2023-03-11T04:08:32;1.90;99.90
10702;DHT22;5402;50.004;8.246;2023-03-11T04:11:00;1.90;99.90
10702;DHT22;5402;50.004;8.246;2023-03-11T04:13:26;1.90;99.90
10702;DHT22;5402;50.004;8.246;2023-03-11T04:15:53;1.90;99.90
10702;DHT22;5402;50.004;8.246;2023-03-11T04:18:21;2.00;99.90
10702;DHT22;5402;50.004;8.246;2023-03-11T04:20:48;2.00;99.90
10702;DHT22;5402;50.004;8.246;2023-03-11T04:23:14;2.00;99.90
10702;DHT22;5402;50.004;8.246;2023-03-11T04:25:41;2.00;99.90
10702;DHT22;5402;50.004;8.246;2023-03-11T04:28:09;2.00;99.90
10702;DHT22;5402;50.004;8.246;2023-03-11T04:30:36;2.00;99.90
10702;DHT22;5402;50.004;8.246;2023-03-11T04:33:03;1.90;99.90
10702;DHT22;5402;50.004;8.246;2023-03-11T04:35:29;1.90;99.90
10702;DHT22;5402;50.004;8.246;2023-03-11T04:37:56;1.90;99.90
10702;DHT22;5402;50.004;8.246;2023-03-11T04:40:23;1.90;99.90
10702;DHT22;5402;50.004;8.246;2023-03-11T04:42:49;1.90;99.90
10702;DHT22;5402;50.004;8.246;2023-03-11T04:45:18;1.90;99.90
10702;DHT22;5402;50.004;8.246;2023-03-11T04:47:46;1.90;99.90
10702;DHT22;5402;50.004;8.246;2023-03-11T04:50:13;1.90;99.90
10702;DHT22;5402;50.004;8.246;2023-03-11T04:52:40;1.90;99.90
10702;DHT22;5402;50.004;8.246;2023-03-11T04:55:07;1.90;99.90
10702;DHT22;5402;50.004;8.246;2023-03-11T04:57:34;1.80;99.90
10702;DHT22;5402;50.004;8.246;2023-03-11T05:00:01;1.90;99.90
10702;DHT22;5402;50.004;8.246;2023-03-11T05:02:36;1.80;99.90
10702;DHT22;5402;50.004;8.246;2023-03-11T05:05:03;1.80;99.90
10702;DHT22;5402;50.004;8.246;2023-03-11T05:07:30;1.80;99.90
10702;DHT22;5402;50.004;8.246;2023-03-11T05:09:57;1.80;99.90
10702;DHT22;5402;50.004;8.246;2023-03-11T05:12:23;1.70;99.90
10702;DHT22;5402;50.004;8.246;2023-03-11T05:14:50;1.70;99.90
10702;DHT22;5402;50.004;8.246;2023-03-11T05:17:18;1.70;99.90
10702;DHT22;5402;50.004;8.246;2023-03-11T05:19:46;1.60;99.90
10702;DHT22;5402;50.004;8.246;2023-03-11T05:22:14;1.60;99.90
10702;DHT22;5402;50.004;8.246;2023-03-11T05:24:41;1.50;99.90
10702;DHT22;5402;50.004;8.246;2023-03-11T05:27:07;1.50;99.90
10702;DHT22;5402;50.004;8.246;2023-03-11T05:29:34;1.50;99.90
10702;DHT22;5402;50.004;8.246;2023-03-11T05:32:01;1.40;99.90
10702;DHT22;5402;50.004;8.246;2023-03-11T05:34:27;1.30;99.90
10702;DHT22;5402;50.004;8.246;2023-03-11T05:36:55;1.20;99.90
10702;DHT22;5402;50.004;8.246;2023-03-11T05:39:22;1.20;99.90
10702;DHT22;5402;50.004;8.246;2023-03-11T05:41:49;1.20;99.90
10702;DHT22;5402;50.004;8.246;2023-03-11T05:44:15;1.20;99.90
10702;DHT22;5402;50.004;8.246;2023-03-11T05:46:42;1.20;99.90
10702;DHT22;5402;50.004;8.246;2023-03-11T05:49:09;1.10;99.90
10702;DHT22;5402;50.004;8.246;2023-03-11T05:51:35;1.10;99.90
10702;DHT22;5402;50.004;8.246;2023-03-11T05:54:04;1.10;99.90
10702;DHT22;5402;50.004;8.246;2023-03-11T05:56:36;1.10;99.90
10702;DHT22;5402;50.004;8.246;2023-03-11T05:59:03;1.10;99.90
10702;DHT22;5402;50.004;8.246;2023-03-11T06:01:29;1.00;99.90
10702;DHT22;5402;50.004;8.246;2023-03-11T06:03:56;1.00;99.90
10702;DHT22;5402;50.004;8.246;2023-03-11T06:06:23;1.00;99.90
10702;DHT22;5402;50.004;8.246;2023-03-11T06:08:49;0.90;99.90
10702;DHT22;5402;50.004;8.246;2023-03-11T06:11:17;0.90;99.90
10702;DHT22;5402;50.004;8.246;2023-03-11T06:13:44;0.90;99.90
10702;DHT22;5402;50.004;8.246;2023-03-11T06:16:11;0.90;99.90
10702;DHT22;5402;50.004;8.246;2023-03-11T06:18:38;0.90;99.90
10702;DHT22;5402;50.004;8.246;2023-03-11T06:21:05;0.80;99.90
10702;DHT22;5402;50.004;8.246;2023-03-11T06:23:33;0.80;99.90
10702;DHT22;5402;50.004;8.246;2023-03-11T06:26:01;0.90;99.90
10702;DHT22;5402;50.004;8.246;2023-03-11T06:28:30;0.90;99.90
10702;DHT22;5402;50.004;8.246;2023-03-11T06:31:06;1.00;99.90
10702;DHT22;5402;50.004;8.246;2023-03-11T06:33:32;1.10;99.90
10702;DHT22;5402;50.004;8.246;2023-03-11T06:36:00;1.20;99.90
10702;DHT22;5402;50.004;8.246;2023-03-11T06:38:28;1.30;99.90
10702;DHT22;5402;50.004;8.246;2023-03-11T06:40:58;1.40;99.90
10702;DHT22;5402;50.004;8.246;2023-03-11T06:43:24;1.40;99.90
10702;DHT22;5402;50.004;8.246;2023-03-11T06:45:52;1.50;99.90
10702;DHT22;5402;50.004;8.246;2023-03-11T06:48:19;1.50;99.90
10702;DHT22;5402;50.004;8.246;2023-03-11T06:50:52;1.60;99.90
10702;DHT22;5402;50.004;8.246;2023-03-11T06:53:19;1.70;99.90
10702;DHT22;5402;50.004;8.246;2023-03-11T06:55:57;1.70;99.90
10702;DHT22;5402;50.004;8.246;2023-03-11T06:58:23;1.80;99.90
10702;DHT22;5402;50.004;8.246;2023-03-11T07:00:50;1.90;99.90
10702;DHT22;5402;50.004;8.246;2023-03-11T07:03:18;1.90;99.90
10702;DHT22;5402;50.004;8.246;2023-03-11T07:05:45;2.00;99.90
10702;DHT22;5402;50.004;8.246;2023-03-11T07:08:15;2.00;99.90
10702;DHT22;5402;50.004;8.246;2023-03-11T07:10:42;2.10;99.90
10702;DHT22;5402;50.004;8.246;2023-03-11T07:13:08;2.20;99.90
10702;DHT22;5402;50.004;8.246;2023-03-11T07:15:35;2.20;99.90
10702;DHT22;5402;50.004;8.246;2023-03-11T07:18:02;2.20;99.90
10702;DHT22;5402;50.004;8.246;2023-03-11T07:20:30;2.60;99.90
10702;DHT22;5402;50.004;8.246;2023-03-11T07:22:57;2.30;99.90
10702;DHT22;5402;50.004;8.246;2023-03-11T07:25:23;2.30;99.90
10702;DHT22;5402;50.004;8.246;2023-03-11T07:27:50;2.30;99.90
10702;DHT22;5402;50.004;8.246;2023-03-11T07:30:17;2.30;99.90
10702;DHT22;5402;50.004;8.246;2023-03-11T07:32:44;2.30;99.90
10702;DHT22;5402;50.004;8.246;2023-03-11T07:35:10;2.30;99.90
10702;DHT22;5402;50.004;8.246;2023-03-11T07:37:38;2.40;99.90
10702;DHT22;5402;50.004;8.246;2023-03-11T07:40:06;2.50;99.90
10702;DHT22;5402;50.004;8.246;2023-03-11T07:42:33;2.50;99.90
10702;DHT22;5402;50.004;8.246;2023-03-11T07:45:00;2.60;99.90
10702;DHT22;5402;50.004;8.246;2023-03-11T07:47:27;2.50;99.90
10702;DHT22;5402;50.004;8.246;2023-03-11T07:49:53;2.60;99.90
10702;DHT22;5402;50.004;8.246;2023-03-11T07:52:20;2.70;99.90
10702;DHT22;5402;50.004;8.246;2023-03-11T07:54:48;2.70;99.90
10702;DHT22;5402;50.004;8.246;2023-03-11T07:57:15;2.80;99.90
10702;DHT22;5402;50.004;8.246;2023-03-11T07:59:42;3.00;99.90
10702;DHT22;5402;50.004;8.246;2023-03-11T08:02:09;3.30;99.90
10702;DHT22;5402;50.004;8.246;2023-03-11T08:04:36;3.40;99.90
10702;DHT22;5402;50.004;8.246;2023-03-11T08:07:03;3.40;99.90
10702;DHT22;5402;50.004;8.246;2023-03-11T08:09:29;3.40;99.90
10702;DHT22;5402;50.004;8.246;2023-03-11T08:11:57;3.20;99.90
10702;DHT22;5402;50.004;8.246;2023-03-11T08:14:24;3.30;99.90
10702;DHT22;5402;50.004;8.246;2023-03-11T08:16:51;3.40;99.90
10702;DHT22;5402;50.004;8.246;2023-03-11T08:19:17;3.50;99.90
10702;DHT22;5402;50.004;8.246;2023-03-11T08:21:44;3.40;99.90
10702;DHT22;5402;50.004;8.246;2023-03-11T08:24:12;3.50;99.90
10702;DHT22;5402;50.004;8.246;2023-03-11T08:26:42;3.50;99.90
10702;DHT22;5402;50.004;8.246;2023-03-11T08:29:21;3.40;99.90
10702;DHT22;5402;50.004;8.246;2023-03-11T08:31:48;3.20;99.90
10702;DHT22;5402;50.004;8.246;2023-03-11T08:34:15;3.20;99.90
10702;DHT22;5402;50.004;8.246;2023-03-11T08:36:42;3.40;99.90
10702;DHT22;5402;50.004;8.246;2023-03-11T08:39:09;3.60;99.90
10702;DHT22;5402;50.004;8.246;2023-03-11T08:41:36;3.50;99.90
10702;DHT22;5402;50.004;8.246;2023-03-11T08:44:02;3.50;99.90
10702;DHT22;5402;50.004;8.246;2023-03-11T08:46:32;3.80;99.90
10702;DHT22;5402;50.004;8.246;2023-03-11T08:49:00;3.70;99.90
10702;DHT22;5402;50.004;8.246;2023-03-11T08:51:29;3.80;99.90
10702;DHT22;5402;50.004;8.246;2023-03-11T08:53:56;3.90;99.90
10702;DHT22;5402;50.004;8.246;2023-03-11T08:56:23;3.80;99.90
10702;DHT22;5402;50.004;8.246;2023-03-11T08:58:50;3.60;99.90
10702;DHT22;5402;50.004;8.246;2023-03-11T09:01:17;3.40;99.90
10702;DHT22;5402;50.004;8.246;2023-03-11T09:03:46;3.50;99.90
10702;DHT22;5402;50.004;8.246;2023-03-11T09:06:15;3.40;99.90
10702;DHT22;5402;50.004;8.246;2023-03-11T09:08:42;3.50;99.90
10702;DHT22;5402;50.004;8.246;2023-03-11T09:11:10;3.60;99.90
10702;DHT22;5402;50.004;8.246;2023-03-11T09:13:37;3.80;99.90
10702;DHT22;5402;50.004;8.246;2023-03-11T09:16:06;4.00;99.90
10702;DHT22;5402;50.004;8.246;2023-03-11T09:18:33;3.90;99.90
10702;DHT22;5402;50.004;8.246;2023-03-11T09:21:01;4.10;99.90
10702;DHT22;5402;50.004;8.246;2023-03-11T09:23:27;4.00;99.90
10702;DHT22;5402;50.004;8.246;2023-03-11T09:25:54;4.10;99.90
10702;DHT22;5402;50.004;8.246;2023-03-11T09:28:21;4.00;99.90
10702;DHT22;5402;50.004;8.246;2023-03-11T09:30:48;4.10;99.90
10702;DHT22;5402;50.004;8.246;2023-03-11T09:33:14;3.90;99.90
10702;DHT22;5402;50.004;8.246;2023-03-11T09:35:41;3.80;99.90
10702;DHT22;5402;50.004;8.246;2023-03-11T09:38:09;3.70;99.90
10702;DHT22;5402;50.004;8.246;2023-03-11T09:40:48;3.80;99.90
10702;DHT22;5402;50.004;8.246;2023-03-11T09:43:22;3.80;99.90
10702;DHT22;5402;50.004;8.246;2023-03-11T09:45:54;3.90;99.90
10702;DHT22;5402;50.004;8.246;2023-03-11T09:48:31;4.20;99.90
10702;DHT22;5402;50.004;8.246;2023-03-11T09:51:06;4.50;99.90
10702;DHT22;5402;50.004;8.246;2023-03-11T09:53:40;4.50;99.90
10702;DHT22;5402;50.004;8.246;2023-03-11T09:56:08;4.30;99.90
10702;DHT22;5402;50.004;8.246;2023-03-11T09:58:38;4.30;99.90
10702;DHT22;5402;50.004;8.246;2023-03-11T10:01:13;4.40;99.90
10702;DHT22;5402;50.004;8.246;2023-03-11T10:03:40;4.60;99.90
10702;DHT22;5402;50.004;8.246;2023-03-11T10:06:14;4.80;99.90
10702;DHT22;5402;50.004;8.246;2023-03-11T10:08:46;5.10;99.90
10702;DHT22;5402;50.004;8.246;2023-03-11T10:14:31;5.50;99.90
10702;DHT22;5402;50.004;8.246;2023-03-11T10:17:07;5.30;99.90
10702;DHT22;5402;50.004;8.246;2023-03-11T10:19:45;5.20;99.90
10702;DHT22;5402;50.004;8.246;2023-03-11T10:22:17;5.00;99.90
10702;DHT22;5402;50.004;8.246;2023-03-11T10:25:02;4.80;99.90
10702;DHT22;5402;50.004;8.246;2023-03-11T10:27:35;4.70;99.90
10702;DHT22;5402;50.004;8.246;2023-03-11T10:30:08;4.80;99.90
10702;DHT22;5402;50.004;8.246;2023-03-11T10:32:40;4.90;99.90
10702;DHT22;5402;50.004;8.246;2023-03-11T10:35:16;4.80;99.90
10702;DHT22;5402;50.004;8.246;2023-03-11T10:37:47;4.50;99.90
10702;DHT22;5402;50.004;8.246;2023-03-11T10:40:27;4.50;99.90
10702;DHT22;5402;50.004;8.246;2023-03-11T10:42:57;4.50;99.90
10702;DHT22;5402;50.004;8.246;2023-03-11T10:45:26;4.60;99.90
10702;DHT22;5402;50.004;8.246;2023-03-11T10:47:55;4.60;99.90
10702;DHT22;5402;50.004;8.246;2023-03-11T10:50:23;4.80;99.90
10702;DHT22;5402;50.004;8.246;2023-03-11T10:53:05;5.00;99.90
10702;DHT22;5402;50.004;8.246;2023-03-11T10:55:34;4.90;99.90
10702;DHT22;5402;50.004;8.246;2023-03-11T10:58:06;4.80;99.90
10702;DHT22;5402;50.004;8.246;2023-03-11T11:00:33;4.70;99.90
10702;DHT22;5402;50.004;8.246;2023-03-11T11:03:00;4.70;99.90
10702;DHT22;5402;50.004;8.246;2023-03-11T11:05:30;4.70;99.90
10702;DHT22;5402;50.004;8.246;2023-03-11T11:08:06;4.70;99.90
10702;DHT22;5402;50.004;8.246;2023-03-11T11:10:35;4.70;99.90
10702;DHT22;5402;50.004;8.246;2023-03-11T11:13:16;4.80;99.90
10702;DHT22;5402;50.004;8.246;2023-03-11T11:15:51;5.00;99.90
10702;DHT22;5402;50.004;8.246;2023-03-11T11:18:20;4.80;99.90
10702;DHT22;5402;50.004;8.246;2023-03-11T11:21:01;4.80;99.90
10702;DHT22;5402;50.004;8.246;2023-03-11T11:23:35;4.90;99.90
10702;DHT22;5402;50.004;8.246;2023-03-11T11:26:07;5.00;99.90
10702;DHT22;5402;50.004;8.246;2023-03-11T11:28:39;5.00;99.90
10702;DHT22;5402;50.004;8.246;2023-03-11T11:31:19;4.80;99.90
10702;DHT22;5402;50.004;8.246;2023-03-11T11:33:49;4.70;99.90
10702;DHT22;5402;50.004;8.246;2023-03-11T11:36:17;4.80;99.90
10702;DHT22;5402;50.004;8.246;2023-03-11T11:38:44;4.90;99.90
10702;DHT22;5402;50.004;8.246;2023-03-11T11:41:16;5.10;99.90
10702;DHT22;5402;50.004;8.246;2023-03-11T11:43:49;5.10;99.90
10702;DHT22;5402;50.004;8.246;2023-03-11T11:46:20;5.20;99.90
10702;DHT22;5402;50.004;8.246;2023-03-11T11:49:01;4.80;99.90
10702;DHT22;5402;50.004;8.246;2023-03-11T11:51:32;4.80;99.90
10702;DHT22;5402;50.004;8.246;2023-03-11T11:54:04;4.80;99.90
10702;DHT22;5402;50.004;8.246;2023-03-11T11:56:37;4.80;99.90
10702;DHT22;5402;50.004;8.246;2023-03-11T11:59:10;4.70;99.90
10702;DHT22;5402;50.004;8.246;2023-03-11T12:01:52;4.80;99.90
10702;DHT22;5402;50.004;8.246;2023-03-11T12:04:45;4.80;99.90
10702;DHT22;5402;50.004;8.246;2023-03-11T12:07:21;5.00;99.90
10702;DHT22;5402;50.004;8.246;2023-03-11T12:09:56;4.80;99.90
10702;DHT22;5402;50.004;8.246;2023-03-11T12:12:28;5.00;99.90
10702;DHT22;5402;50.004;8.246;2023-03-11T12:15:02;5.10;99.90
10702;DHT22;5402;50.004;8.246;2023-03-11T12:17:35;4.80;99.90
10702;DHT22;5402;50.004;8.246;2023-03-11T12:20:09;5.00;99.90
10702;DHT22;5402;50.004;8.246;2023-03-11T12:22:59;4.90;99.90
10702;DHT22;5402;50.004;8.246;2023-03-11T12:25:36;4.70;99.90
10702;DHT22;5402;50.004;8.246;2023-03-11T12:28:15;4.70;99.90
10702;DHT22;5402;50.004;8.246;2023-03-11T12:30:45;4.60;99.90
10702;DHT22;5402;50.004;8.246;2023-03-11T12:33:17;4.80;99.90
10702;DHT22;5402;50.004;8.246;2023-03-11T12:35:52;5.00;99.90
10702;DHT22;5402;50.004;8.246;2023-03-11T12:38:26;5.10;99.90
10702;DHT22;5402;50.004;8.246;2023-03-11T12:40:58;5.00;99.90
10702;DHT22;5402;50.004;8.246;2023-03-11T12:46:10;5.20;99.90
10702;DHT22;5402;50.004;8.246;2023-03-11T12:48:42;5.30;99.90
10702;DHT22;5402;50.004;8.246;2023-03-11T12:51:36;5.20;99.90
10702;DHT22;5402;50.004;8.246;2023-03-11T12:54:26;5.00;99.90
10702;DHT22;5402;50.004;8.246;2023-03-11T12:56:54;5.10;99.90
10702;DHT22;5402;50.004;8.246;2023-03-11T12:59:40;4.90;99.90
10702;DHT22;5402;50.004;8.246;2023-03-11T13:02:21;5.00;99.90
10702;DHT22;5402;50.004;8.246;2023-03-11T13:04:55;5.10;99.90
10702;DHT22;5402;50.004;8.246;2023-03-11T13:07:40;5.20;99.90
10702;DHT22;5402;50.004;8.246;2023-03-11T13:10:14;5.00;99.90
10702;DHT22;5402;50.004;8.246;2023-03-11T13:12:43;5.10;99.90
10702;DHT22;5402;50.004;8.246;2023-03-11T13:15:28;4.70;99.90
10702;DHT22;5402;50.004;8.246;2023-03-11T13:18:00;4.70;99.90
10702;DHT22;5402;50.004;8.246;2023-03-11T13:20:48;4.70;99.90
10702;DHT22;5402;50.004;8.246;2023-03-11T13:23:25;4.80;99.90
10702;DHT22;5402;50.004;8.246;2023-03-11T13:29:16;4.90;99.90
10702;DHT22;5402;50.004;8.246;2023-03-11T13:32:00;4.70;99.90
10702;DHT22;5402;50.004;8.246;2023-03-11T13:34:34;4.70;99.90
10702;DHT22;5402;50.004;8.246;2023-03-11T13:37:22;4.50;99.90
10702;DHT22;5402;50.004;8.246;2023-03-11T13:39:58;4.40;99.90
10702;DHT22;5402;50.004;8.246;2023-03-11T13:42:28;4.50;99.90
10702;DHT22;5402;50.004;8.246;2023-03-11T13:44:56;4.60;99.90
10702;DHT22;5402;50.004;8.246;2023-03-11T13:47:25;4.80;99.90
10702;DHT22;5402;50.004;8.246;2023-03-11T13:49:59;4.70;99.90
10702;DHT22;5402;50.004;8.246;2023-03-11T13:52:31;4.60;99.90
10702;DHT22;5402;50.004;8.246;2023-03-11T13:55:02;4.80;99.90
10702;DHT22;5402;50.004;8.246;2023-03-11T13:57:32;4.90;99.90
10702;DHT22;5402;50.004;8.246;2023-03-11T14:00:06;5.10;99.90
10702;DHT22;5402;50.004;8.246;2023-03-11T14:02:49;5.10;99.90
10702;DHT22;5402;50.004;8.246;2023-03-11T14:05:19;5.10;99.90
10702;DHT22;5402;50.004;8.246;2023-03-11T14:07:46;4.90;99.90
10702;DHT22;5402;50.004;8.246;2023-03-11T14:10:25;5.00;99.90
10702;DHT22;5402;50.004;8.246;2023-03-11T14:13:13;4.90;99.90
10702;DHT22;5402;50.004;8.246;2023-03-11T14:15:45;4.90;99.90
10702;DHT22;5402;50.004;8.246;2023-03-11T14:18:32;5.10;99.90
10702;DHT22;5402;50.004;8.246;2023-03-11T14:21:00;5.20;99.90
10702;DHT22;5402;50.004;8.246;2023-03-11T14:23:32;5.20;99.90
10702;DHT22;5402;50.004;8.246;2023-03-11T14:26:05;5.30;99.90
10702;DHT22;5402;50.004;8.246;2023-03-11T14:28:35;5.30;99.90
10702;DHT22;5402;50.004;8.246;2023-03-11T14:31:03;5.30;99.90
10702;DHT22;5402;50.004;8.246;2023-03-11T14:33:31;5.30;99.90
10702;DHT22;5402;50.004;8.246;2023-03-11T14:36:01;5.60;99.90
10702;DHT22;5402;50.004;8.246;2023-03-11T14:38:30;5.70;99.90
10702;DHT22;5402;50.004;8.246;2023-03-11T14:40:58;5.70;99.90
10702;DHT22;5402;50.004;8.246;2023-03-11T14:43:26;5.50;99.90
10702;DHT22;5402;50.004;8.246;2023-03-11T14:45:54;5.50;99.90
10702;DHT22;5402;50.004;8.246;2023-03-11T14:48:26;5.70;99.90
10702;DHT22;5402;50.004;8.246;2023-03-11T14:50:57;5.60;99.90
10702;DHT22;5402;50.004;8.246;2023-03-11T14:53:25;5.40;99.90
10702;DHT22;5402;50.004;8.246;2023-03-11T14:55:55;5.40;99.90
10702;DHT22;5402;50.004;8.246;2023-03-11T14:58:27;5.20;99.90
10702;DHT22;5402;50.004;8.246;2023-03-11T15:00:58;5.10;99.90
10702;DHT22;5402;50.004;8.246;2023-03-11T15:03:29;5.20;99.90
10702;DHT22;5402;50.004;8.246;2023-03-11T15:05:59;5.40;99.90
10702;DHT22;5402;50.004;8.246;2023-03-11T15:08:30;5.50;99.90
10702;DHT22;5402;50.004;8.246;2023-03-11T15:11:03;5.50;99.90
10702;DHT22;5402;50.004;8.246;2023-03-11T15:13:34;5.40;99.90
10702;DHT22;5402;50.004;8.246;2023-03-11T15:16:02;5.60;99.90
10702;DHT22;5402;50.004;8.246;2023-03-11T15:18:32;5.50;99.90
10702;DHT22;5402;50.004;8.246;2023-03-11T15:21:06;5.50;99.90
10702;DHT22;5402;50.004;8.246;2023-03-11T15:23:34;5.50;99.90
10702;DHT22;5402;50.004;8.246;2023-03-11T15:26:02;5.10;99.90
10702;DHT22;5402;50.004;8.246;2023-03-11T15:28:33;5.30;99.90
10702;DHT22;5402;50.004;8.246;2023-03-11T15:31:15;5.40;99.90
10702;DHT22;5402;50.004;8.246;2023-03-11T15:33:43;5.50;99.90
10702;DHT22;5402;50.004;8.246;2023-03-11T15:36:32;5.40;99.90
10702;DHT22;5402;50.004;8.246;2023-03-11T15:39:14;5.20;99.90
10702;DHT22;5402;50.004;8.246;2023-03-11T15:41:43;5.50;99.90
10702;DHT22;5402;50.004;8.246;2023-03-11T15:44:23;5.40;99.90
10702;DHT22;5402;50.004;8.246;2023-03-11T15:46:50;5.40;99.90
10702;DHT22;5402;50.004;8.246;2023-03-11T15:49:23;5.40;99.90
10702;DHT22;5402;50.004;8.246;2023-03-11T15:51:51;5.40;99.90
10702;DHT22;5402;50.004;8.246;2023-03-11T15:54:18;5.40;99.90
10702;DHT22;5402;50.004;8.246;2023-03-11T15:56:45;5.30;99.90
10702;DHT22;5402;50.004;8.246;2023-03-11T15:59:14;5.30;99.90
10702;DHT22;5402;50.004;8.246;2023-03-11T16:01:42;5.20;99.90
10702;DHT22;5402;50.004;8.246;2023-03-11T16:04:12;5.20;99.90
10702;DHT22;5402;50.004;8.246;2023-03-11T16:06:43;5.10;99.90
10702;DHT22;5402;50.004;8.246;2023-03-11T16:09:11;5.00;99.90
10702;DHT22;5402;50.004;8.246;2023-03-11T16:11:41;4.80;99.90
10702;DHT22;5402;50.004;8.246;2023-03-11T16:14:14;4.80;99.90
10702;DHT22;5402;50.004;8.246;2023-03-11T16:16:41;4.70;99.90
10702;DHT22;5402;50.004;8.246;2023-03-11T16:19:08;4.70;99.90
10702;DHT22;5402;50.004;8.246;2023-03-11T16:21:37;4.70;99.90
10702;DHT22;5402;50.004;8.246;2023-03-11T16:24:06;4.80;99.90
10702;DHT22;5402;50.004;8.246;2023-03-11T16:26:34;4.80;99.90
10702;DHT22;5402;50.004;8.246;2023-03-11T16:29:01;4.80;99.90